sensor_id;sensor_type;location;lat;lon;timestamp;P1;durP1;ratioP1;P2;durP2;ratioP2
55015;SDS011;40919;43.236;21.590;2022-07-29T00:01:42;11.00;;;7.13;;
55015;SDS011;40919;43.236;21.590;2022-07-29T00:04:09;10.07;;;6.78;;
55015;SDS011;40919;43.236;21.590;2022-07-29T00:06:35;10.60;;;7.43;;
55015;SDS011;40919;43.236;21.590;2022-07-29T00:09:02;10.20;;;6.43;;
55015;SDS011;40919;43.236;21.590;2022-07-29T00:11:28;7.45;;;5.85;;
55015;SDS011;40919;43.236;21.590;2022-07-29T00:13:54;8.60;;;5.60;;
55015;SDS011;40919;43.236;21.590;2022-07-29T00:16:20;10.63;;;6.45;;
55015;SDS011;40919;43.236;21.590;2022-07-29T00:18:47;9.98;;;6.78;;
55015;SDS011;40919;43.236;21.590;2022-07-29T00:21:13;9.60;;;6.03;;
55015;SDS011;40919;43.236;21.590;2022-07-29T00:23:39;7.97;;;6.15;;
55015;SDS011;40919;43.236;21.590;2022-07-29T00:26:06;9.30;;;6.60;;
55015;SDS011;40919;43.236;21.590;2022-07-29T00:28:32;10.23;;;6.78;;
55015;SDS011;40919;43.236;21.590;2022-07-29T00:30:58;9.50;;;6.20;;
55015;SDS011;40919;43.236;21.590;2022-07-29T00:33:24;9.07;;;5.85;;
55015;SDS011;40919;43.236;21.590;2022-07-29T00:35:51;9.18;;;6.80;;
55015;SDS011;40919;43.236;21.590;2022-07-29T00:38:17;8.07;;;6.13;;
55015;SDS011;40919;43.236;21.590;2022-07-29T00:40:45;11.00;;;6.30;;
55015;SDS011;40919;43.236;21.590;2022-07-29T00:43:13;9.32;;;6.78;;
55015;SDS011;40919;43.236;21.590;2022-07-29T00:45:40;9.38;;;6.60;;
55015;SDS011;40919;43.236;21.590;2022-07-29T00:48:06;11.90;;;6.85;;
55015;SDS011;40919;43.236;21.590;2022-07-29T00:50:34;8.30;;;6.25;;
55015;SDS011;40919;43.236;21.590;2022-07-29T00:53:00;7.53;;;6.68;;
55015;SDS011;40919;43.236;21.590;2022-07-29T00:55:28;11.13;;;6.97;;
55015;SDS011;40919;43.236;21.590;2022-07-29T00:57:55;9.15;;;6.30;;
55015;SDS011;40919;43.236;21.590;2022-07-29T01:00:24;13.32;;;6.90;;
55015;SDS011;40919;43.236;21.590;2022-07-29T01:02:52;11.38;;;5.85;;
55015;SDS011;40919;43.236;21.590;2022-07-29T01:05:19;13.32;;;7.47;;
55015;SDS011;40919;43.236;21.590;2022-07-29T01:07:46;8.52;;;6.30;;
55015;SDS011;40919;43.236;21.590;2022-07-29T01:10:16;10.07;;;6.60;;
55015;SDS011;40919;43.236;21.590;2022-07-29T01:12:45;14.07;;;6.63;;
55015;SDS011;40919;43.236;21.590;2022-07-29T01:15:14;11.70;;;6.75;;
55015;SDS011;40919;43.236;21.590;2022-07-29T01:31:25;11.27;;;8.73;;
55015;SDS011;40919;43.236;21.590;2022-07-29T01:34:24;8.33;;;7.43;;
55015;SDS011;40919;43.236;21.590;2022-07-29T01:37:47;9.02;;;7.50;;
55015;SDS011;40919;43.236;21.590;2022-07-29T01:39:54;14.75;;;7.93;;
55015;SDS011;40919;43.236;21.590;2022-07-29T01:44:59;15.82;;;8.52;;
55015;SDS011;40919;43.236;21.590;2022-07-29T01:47:42;9.32;;;7.45;;
55015;SDS011;40919;43.236;21.590;2022-07-29T01:50:12;12.57;;;7.80;;
55015;SDS011;40919;43.236;21.590;2022-07-29T01:52:43;15.45;;;7.60;;
55015;SDS011;40919;43.236;21.590;2022-07-29T01:55:17;9.55;;;7.75;;
55015;SDS011;40919;43.236;21.590;2022-07-29T01:57:46;12.38;;;8.15;;
55015;SDS011;40919;43.236;21.590;2022-07-29T02:00:13;11.38;;;7.45;;
55015;SDS011;40919;43.236;21.590;2022-07-29T02:02:44;13.38;;;7.55;;
55015;SDS011;40919;43.236;21.590;2022-07-29T02:05:13;13.20;;;8.48;;
55015;SDS011;40919;43.236;21.590;2022-07-29T02:07:42;10.30;;;7.28;;
55015;SDS011;40919;43.236;21.590;2022-07-29T02:10:11;12.57;;;8.07;;
55015;SDS011;40919;43.236;21.590;2022-07-29T02:12:40;12.30;;;7.38;;
55015;SDS011;40919;43.236;21.590;2022-07-29T02:15:08;10.93;;;7.30;;
55015;SDS011;40919;43.236;21.590;2022-07-29T02:17:39;12.13;;;7.95;;
55015;SDS011;40919;43.236;21.590;2022-07-29T02:20:12;9.52;;;7.55;;
55015;SDS011;40919;43.236;21.590;2022-07-29T02:22:39;10.90;;;7.18;;
55015;SDS011;40919;43.236;21.590;2022-07-29T02:25:09;11.45;;;7.45;;
55015;SDS011;40919;43.236;21.590;2022-07-29T02:27:37;9.97;;;7.60;;
55015;SDS011;40919;43.236;21.590;2022-07-29T02:30:06;10.10;;;8.73;;
55015;SDS011;40919;43.236;21.590;2022-07-29T02:32:35;12.65;;;8.57;;
55015;SDS011;40919;43.236;21.590;2022-07-29T02:35:02;12.25;;;7.38;;
55015;SDS011;40919;43.236;21.590;2022-07-29T02:37:30;10.80;;;7.30;;
55015;SDS011;40919;43.236;21.590;2022-07-29T02:39:57;13.23;;;7.95;;
55015;SDS011;40919;43.236;21.590;2022-07-29T02:42:24;12.95;;;8.05;;
55015;SDS011;40919;43.236;21.590;2022-07-29T02:44:52;10.50;;;8.55;;
55015;SDS011;40919;43.236;21.590;2022-07-29T02:47:23;12.52;;;7.88;;
55015;SDS011;40919;43.236;21.590;2022-07-29T02:52:21;12.18;;;8.40;;
55015;SDS011;40919;43.236;21.590;2022-07-29T02:54:56;9.82;;;7.32;;
55015;SDS011;40919;43.236;21.590;2022-07-29T02:57:32;11.05;;;7.75;;
55015;SDS011;40919;43.236;21.590;2022-07-29T03:00:08;12.60;;;7.55;;
55015;SDS011;40919;43.236;21.590;2022-07-29T03:02:36;13.15;;;7.50;;
55015;SDS011;40919;43.236;21.590;2022-07-29T03:05:06;10.48;;;7.15;;
55015;SDS011;40919;43.236;21.590;2022-07-29T03:07:36;12.13;;;7.70;;
55015;SDS011;40919;43.236;21.590;2022-07-29T03:10:03;9.07;;;7.03;;
55015;SDS011;40919;43.236;21.590;2022-07-29T03:12:31;11.93;;;7.97;;
55015;SDS011;40919;43.236;21.590;2022-07-29T03:14:57;9.25;;;6.85;;
55015;SDS011;40919;43.236;21.590;2022-07-29T03:17:25;9.23;;;7.30;;
55015;SDS011;40919;43.236;21.590;2022-07-29T03:19:52;12.40;;;8.68;;
55015;SDS011;40919;43.236;21.590;2022-07-29T03:22:18;9.20;;;7.78;;
55015;SDS011;40919;43.236;21.590;2022-07-29T03:24:45;12.88;;;7.68;;
55015;SDS011;40919;43.236;21.590;2022-07-29T03:27:11;11.48;;;9.07;;
55015;SDS011;40919;43.236;21.590;2022-07-29T03:29:37;13.70;;;8.77;;
55015;SDS011;40919;43.236;21.590;2022-07-29T03:32:04;16.95;;;8.18;;
55015;SDS011;40919;43.236;21.590;2022-07-29T03:34:31;13.93;;;8.20;;
55015;SDS011;40919;43.236;21.590;2022-07-29T03:36:58;15.10;;;8.38;;
55015;SDS011;40919;43.236;21.590;2022-07-29T03:39:25;14.50;;;8.23;;
55015;SDS011;40919;43.236;21.590;2022-07-29T03:41:56;12.38;;;8.05;;
55015;SDS011;40919;43.236;21.590;2022-07-29T03:44:25;14.40;;;8.73;;
55015;SDS011;40919;43.236;21.590;2022-07-29T03:46:53;12.90;;;8.25;;
55015;SDS011;40919;43.236;21.590;2022-07-29T03:49:20;11.57;;;8.13;;
55015;SDS011;40919;43.236;21.590;2022-07-29T03:51:48;14.00;;;9.02;;
55015;SDS011;40919;43.236;21.590;2022-07-29T03:54:15;13.55;;;9.23;;
55015;SDS011;40919;43.236;21.590;2022-07-29T03:56:42;13.52;;;8.90;;
55015;SDS011;40919;43.236;21.590;2022-07-29T03:59:13;12.40;;;8.05;;
55015;SDS011;40919;43.236;21.590;2022-07-29T04:01:40;17.10;;;8.77;;
55015;SDS011;40919;43.236;21.590;2022-07-29T04:04:07;13.00;;;8.70;;
55015;SDS011;40919;43.236;21.590;2022-07-29T04:06:40;11.40;;;7.85;;
55015;SDS011;40919;43.236;21.590;2022-07-29T04:09:08;14.77;;;9.00;;
55015;SDS011;40919;43.236;21.590;2022-07-29T04:11:35;14.98;;;10.25;;
55015;SDS011;40919;43.236;21.590;2022-07-29T04:14:03;18.80;;;9.93;;
55015;SDS011;40919;43.236;21.590;2022-07-29T04:16:29;18.30;;;9.52;;
55015;SDS011;40919;43.236;21.590;2022-07-29T04:18:56;18.95;;;9.57;;
55015;SDS011;40919;43.236;21.590;2022-07-29T04:21:22;12.93;;;8.50;;
55015;SDS011;40919;43.236;21.590;2022-07-29T04:23:48;18.90;;;10.32;;
55015;SDS011;40919;43.236;21.590;2022-07-29T04:26:17;16.23;;;10.48;;
55015;SDS011;40919;43.236;21.590;2022-07-29T04:28:44;14.20;;;9.02;;
55015;SDS011;40919;43.236;21.590;2022-07-29T04:31:11;15.93;;;10.13;;
55015;SDS011;40919;43.236;21.590;2022-07-29T04:33:38;15.35;;;10.23;;
55015;SDS011;40919;43.236;21.590;2022-07-29T04:36:05;17.42;;;9.73;;
55015;SDS011;40919;43.236;21.590;2022-07-29T04:38:31;21.15;;;10.77;;
55015;SDS011;40919;43.236;21.590;2022-07-29T04:40:57;17.42;;;10.50;;
55015;SDS011;40919;43.236;21.590;2022-07-29T04:43:24;14.60;;;10.23;;
55015;SDS011;40919;43.236;21.590;2022-07-29T04:45:50;18.48;;;9.20;;
55015;SDS011;40919;43.236;21.590;2022-07-29T04:48:17;17.52;;;10.45;;
55015;SDS011;40919;43.236;21.590;2022-07-29T04:50:43;15.85;;;9.45;;
55015;SDS011;40919;43.236;21.590;2022-07-29T04:53:09;18.40;;;9.95;;
55015;SDS011;40919;43.236;21.590;2022-07-29T04:55:36;15.98;;;9.80;;
55015;SDS011;40919;43.236;21.590;2022-07-29T04:58:05;13.57;;;9.98;;
55015;SDS011;40919;43.236;21.590;2022-07-29T05:00:32;12.77;;;8.45;;
55015;SDS011;40919;43.236;21.590;2022-07-29T05:02:58;15.60;;;10.30;;
55015;SDS011;40919;43.236;21.590;2022-07-29T05:05:24;13.18;;;8.68;;
55015;SDS011;40919;43.236;21.590;2022-07-29T05:07:52;11.40;;;8.45;;
55015;SDS011;40919;43.236;21.590;2022-07-29T05:10:18;9.95;;;8.55;;
55015;SDS011;40919;43.236;21.590;2022-07-29T05:12:44;10.38;;;8.00;;
55015;SDS011;40919;43.236;21.590;2022-07-29T05:15:11;13.50;;;8.02;;
55015;SDS011;40919;43.236;21.590;2022-07-29T05:17:37;10.15;;;8.88;;
55015;SDS011;40919;43.236;21.590;2022-07-29T05:20:04;13.13;;;8.07;;
55015;SDS011;40919;43.236;21.590;2022-07-29T05:22:31;10.80;;;9.05;;
55015;SDS011;40919;43.236;21.590;2022-07-29T05:24:57;10.13;;;8.02;;
55015;SDS011;40919;43.236;21.590;2022-07-29T05:27:39;13.93;;;8.82;;
55015;SDS011;40919;43.236;21.590;2022-07-29T05:36:35;13.18;;;9.23;;
55015;SDS011;40919;43.236;21.590;2022-07-29T05:39:11;11.30;;;8.88;;
55015;SDS011;40919;43.236;21.590;2022-07-29T05:41:44;11.07;;;8.18;;
55015;SDS011;40919;43.236;21.590;2022-07-29T05:44:13;11.10;;;8.85;;
55015;SDS011;40919;43.236;21.590;2022-07-29T05:46:39;14.68;;;11.75;;
55015;SDS011;40919;43.236;21.590;2022-07-29T05:49:11;12.38;;;8.77;;
55015;SDS011;40919;43.236;21.590;2022-07-29T05:51:43;12.80;;;8.45;;
55015;SDS011;40919;43.236;21.590;2022-07-29T05:54:21;9.85;;;8.35;;
55015;SDS011;40919;43.236;21.590;2022-07-29T05:56:47;12.68;;;8.70;;
55015;SDS011;40919;43.236;21.590;2022-07-29T05:59:17;12.57;;;9.88;;
55015;SDS011;40919;43.236;21.590;2022-07-29T06:04:38;15.57;;;11.75;;
55015;SDS011;40919;43.236;21.590;2022-07-29T06:07:07;13.18;;;9.25;;
55015;SDS011;40919;43.236;21.590;2022-07-29T06:09:36;13.80;;;8.60;;
55015;SDS011;40919;43.236;21.590;2022-07-29T06:12:02;14.00;;;9.45;;
55015;SDS011;40919;43.236;21.590;2022-07-29T06:14:35;17.65;;;8.98;;
55015;SDS011;40919;43.236;21.590;2022-07-29T06:17:03;13.40;;;9.15;;
55015;SDS011;40919;43.236;21.590;2022-07-29T06:19:30;12.18;;;8.13;;
55015;SDS011;40919;43.236;21.590;2022-07-29T06:21:56;11.73;;;8.25;;
55015;SDS011;40919;43.236;21.590;2022-07-29T06:24:23;12.15;;;8.68;;
55015;SDS011;40919;43.236;21.590;2022-07-29T06:26:49;13.18;;;8.27;;
55015;SDS011;40919;43.236;21.590;2022-07-29T06:29:15;15.32;;;8.75;;
55015;SDS011;40919;43.236;21.590;2022-07-29T06:31:42;15.43;;;9.13;;
55015;SDS011;40919;43.236;21.590;2022-07-29T06:34:08;14.13;;;10.27;;
55015;SDS011;40919;43.236;21.590;2022-07-29T06:36:34;12.57;;;8.70;;
55015;SDS011;40919;43.236;21.590;2022-07-29T06:39:03;16.42;;;9.07;;
55015;SDS011;40919;43.236;21.590;2022-07-29T06:41:31;12.73;;;9.63;;
55015;SDS011;40919;43.236;21.590;2022-07-29T06:44:00;14.00;;;9.10;;
55015;SDS011;40919;43.236;21.590;2022-07-29T06:46:32;10.55;;;8.98;;
55015;SDS011;40919;43.236;21.590;2022-07-29T06:48:58;14.82;;;8.70;;
55015;SDS011;40919;43.236;21.590;2022-07-29T06:51:26;12.82;;;9.32;;
55015;SDS011;40919;43.236;21.590;2022-07-29T06:53:52;11.95;;;8.82;;
55015;SDS011;40919;43.236;21.590;2022-07-29T06:56:18;12.68;;;10.15;;
55015;SDS011;40919;43.236;21.590;2022-07-29T06:58:44;15.27;;;10.45;;
55015;SDS011;40919;43.236;21.590;2022-07-29T07:01:11;10.43;;;8.40;;
55015;SDS011;40919;43.236;21.590;2022-07-29T07:03:37;11.98;;;8.20;;
55015;SDS011;40919;43.236;21.590;2022-07-29T07:06:03;15.43;;;9.32;;
55015;SDS011;40919;43.236;21.590;2022-07-29T07:08:29;11.05;;;8.57;;
55015;SDS011;40919;43.236;21.590;2022-07-29T07:10:56;14.88;;;8.63;;
55015;SDS011;40919;43.236;21.590;2022-07-29T07:13:22;12.25;;;8.60;;
55015;SDS011;40919;43.236;21.590;2022-07-29T07:15:55;13.88;;;8.77;;
55015;SDS011;40919;43.236;21.590;2022-07-29T07:18:21;16.15;;;9.82;;
55015;SDS011;40919;43.236;21.590;2022-07-29T07:20:47;14.18;;;9.43;;
55015;SDS011;40919;43.236;21.590;2022-07-29T07:23:13;14.43;;;10.60;;
55015;SDS011;40919;43.236;21.590;2022-07-29T07:25:39;11.98;;;10.20;;
55015;SDS011;40919;43.236;21.590;2022-07-29T07:28:05;15.15;;;8.65;;
55015;SDS011;40919;43.236;21.590;2022-07-29T07:30:31;12.63;;;9.45;;
55015;SDS011;40919;43.236;21.590;2022-07-29T07:32:57;10.35;;;9.15;;
55015;SDS011;40919;43.236;21.590;2022-07-29T07:35:23;11.40;;;8.38;;
55015;SDS011;40919;43.236;21.590;2022-07-29T07:37:50;10.25;;;9.25;;
55015;SDS011;40919;43.236;21.590;2022-07-29T07:40:16;10.13;;;9.07;;
55015;SDS011;40919;43.236;21.590;2022-07-29T07:42:42;13.15;;;9.27;;
55015;SDS011;40919;43.236;21.590;2022-07-29T07:45:08;10.00;;;8.93;;
55015;SDS011;40919;43.236;21.590;2022-07-29T07:47:38;17.75;;;9.40;;
55015;SDS011;40919;43.236;21.590;2022-07-29T07:50:08;12.88;;;10.63;;
55015;SDS011;40919;43.236;21.590;2022-07-29T07:52:34;10.35;;;9.35;;
55015;SDS011;40919;43.236;21.590;2022-07-29T07:55:11;12.50;;;9.05;;
55015;SDS011;40919;43.236;21.590;2022-07-29T07:57:37;11.63;;;9.73;;
55015;SDS011;40919;43.236;21.590;2022-07-29T08:00:03;12.02;;;9.60;;
55015;SDS011;40919;43.236;21.590;2022-07-29T08:02:29;12.85;;;9.07;;
55015;SDS011;40919;43.236;21.590;2022-07-29T08:04:56;10.13;;;8.82;;
55015;SDS011;40919;43.236;21.590;2022-07-29T08:07:22;10.65;;;9.15;;
55015;SDS011;40919;43.236;21.590;2022-07-29T08:09:48;13.48;;;9.75;;
55015;SDS011;40919;43.236;21.590;2022-07-29T08:12:13;13.50;;;9.70;;
55015;SDS011;40919;43.236;21.590;2022-07-29T08:14:40;11.60;;;9.85;;
55015;SDS011;40919;43.236;21.590;2022-07-29T08:17:06;14.68;;;9.13;;
55015;SDS011;40919;43.236;21.590;2022-07-29T08:19:32;12.95;;;9.98;;
55015;SDS011;40919;43.236;21.590;2022-07-29T08:21:58;11.60;;;8.50;;
55015;SDS011;40919;43.236;21.590;2022-07-29T08:24:24;11.05;;;8.68;;
55015;SDS011;40919;43.236;21.590;2022-07-29T08:27:08;10.18;;;8.43;;
55015;SDS011;40919;43.236;21.590;2022-07-29T08:29:37;10.02;;;8.93;;
55015;SDS011;40919;43.236;21.590;2022-07-29T08:32:04;10.80;;;8.60;;
55015;SDS011;40919;43.236;21.590;2022-07-29T08:34:30;10.02;;;8.65;;
55015;SDS011;40919;43.236;21.590;2022-07-29T08:36:57;12.18;;;9.55;;
55015;SDS011;40919;43.236;21.590;2022-07-29T08:39:23;10.77;;;9.60;;
55015;SDS011;40919;43.236;21.590;2022-07-29T08:41:50;11.77;;;9.80;;
55015;SDS011;40919;43.236;21.590;2022-07-29T08:44:19;9.77;;;7.75;;
55015;SDS011;40919;43.236;21.590;2022-07-29T08:46:46;9.27;;;7.95;;
55015;SDS011;40919;43.236;21.590;2022-07-29T08:49:13;13.18;;;8.15;;
55015;SDS011;40919;43.236;21.590;2022-07-29T08:51:39;10.57;;;7.40;;
55015;SDS011;40919;43.236;21.590;2022-07-29T08:54:06;12.70;;;7.32;;
55015;SDS011;40919;43.236;21.590;2022-07-29T08:56:34;12.02;;;7.53;;
55015;SDS011;40919;43.236;21.590;2022-07-29T08:59:04;8.82;;;7.93;;
55015;SDS011;40919;43.236;21.590;2022-07-29T09:01:32;10.02;;;8.43;;
55015;SDS011;40919;43.236;21.590;2022-07-29T09:03:58;10.60;;;8.80;;
55015;SDS011;40919;43.236;21.590;2022-07-29T09:06:26;8.32;;;7.13;;
55015;SDS011;40919;43.236;21.590;2022-07-29T09:08:57;16.23;;;9.50;;
55015;SDS011;40919;43.236;21.590;2022-07-29T09:11:24;12.35;;;7.75;;
55015;SDS011;40919;43.236;21.590;2022-07-29T09:13:50;9.45;;;7.60;;
55015;SDS011;40919;43.236;21.590;2022-07-29T09:16:16;11.23;;;7.32;;
55015;SDS011;40919;43.236;21.590;2022-07-29T09:18:43;9.98;;;8.93;;
55015;SDS011;40919;43.236;21.590;2022-07-29T09:21:12;9.75;;;7.07;;
55015;SDS011;40919;43.236;21.590;2022-07-29T09:24:02;8.07;;;6.90;;
55015;SDS011;40919;43.236;21.590;2022-07-29T09:26:32;13.45;;;7.70;;
55015;SDS011;40919;43.236;21.590;2022-07-29T09:28:58;9.27;;;6.80;;
55015;SDS011;40919;43.236;21.590;2022-07-29T09:31:35;8.20;;;6.63;;
55015;SDS011;40919;43.236;21.590;2022-07-29T09:34:02;8.73;;;7.57;;
55015;SDS011;40919;43.236;21.590;2022-07-29T09:36:28;9.82;;;7.07;;
55015;SDS011;40919;43.236;21.590;2022-07-29T09:39:01;7.22;;;6.53;;
55015;SDS011;40919;43.236;21.590;2022-07-29T09:41:28;11.07;;;6.95;;
55015;SDS011;40919;43.236;21.590;2022-07-29T09:43:55;9.60;;;6.50;;
55015;SDS011;40919;43.236;21.590;2022-07-29T09:46:21;10.50;;;8.60;;
55015;SDS011;40919;43.236;21.590;2022-07-29T09:49:09;9.30;;;7.65;;
55015;SDS011;40919;43.236;21.590;2022-07-29T09:51:35;10.60;;;7.00;;
55015;SDS011;40919;43.236;21.590;2022-07-29T09:54:03;8.98;;;7.40;;
55015;SDS011;40919;43.236;21.590;2022-07-29T09:56:47;8.38;;;7.47;;
55015;SDS011;40919;43.236;21.590;2022-07-29T09:59:13;11.25;;;8.23;;
55015;SDS011;40919;43.236;21.590;2022-07-29T10:01:39;7.68;;;6.30;;
55015;SDS011;40919;43.236;21.590;2022-07-29T10:04:05;8.20;;;6.32;;
55015;SDS011;40919;43.236;21.590;2022-07-29T10:06:31;8.32;;;7.15;;
55015;SDS011;40919;43.236;21.590;2022-07-29T10:09:07;8.60;;;6.30;;
55015;SDS011;40919;43.236;21.590;2022-07-29T10:11:34;9.93;;;6.82;;
55015;SDS011;40919;43.236;21.590;2022-07-29T10:14:01;8.32;;;7.32;;
55015;SDS011;40919;43.236;21.590;2022-07-29T10:16:28;8.02;;;6.32;;
55015;SDS011;40919;43.236;21.590;2022-07-29T10:19:00;7.35;;;6.43;;
55015;SDS011;40919;43.236;21.590;2022-07-29T10:21:26;10.20;;;7.22;;
55015;SDS011;40919;43.236;21.590;2022-07-29T10:23:53;8.70;;;7.32;;
55015;SDS011;40919;43.236;21.590;2022-07-29T10:26:19;7.45;;;6.40;;
55015;SDS011;40919;43.236;21.590;2022-07-29T10:28:45;11.05;;;6.80;;
55015;SDS011;40919;43.236;21.590;2022-07-29T10:31:21;7.95;;;6.90;;
55015;SDS011;40919;43.236;21.590;2022-07-29T10:33:52;8.23;;;6.35;;
55015;SDS011;40919;43.236;21.590;2022-07-29T10:38:51;11.13;;;9.93;;
55015;SDS011;40919;43.236;21.590;2022-07-29T10:46:27;9.13;;;6.45;;
55015;SDS011;40919;43.236;21.590;2022-07-29T10:49:06;8.82;;;6.47;;
55015;SDS011;40919;43.236;21.590;2022-07-29T10:59:45;10.27;;;6.65;;
55015;SDS011;40919;43.236;21.590;2022-07-29T11:05:05;7.05;;;5.82;;
55015;SDS011;40919;43.236;21.590;2022-07-29T11:07:34;6.85;;;6.13;;
55015;SDS011;40919;43.236;21.590;2022-07-29T11:15:08;8.10;;;6.03;;
55015;SDS011;40919;43.236;21.590;2022-07-29T11:20:33;11.07;;;6.93;;
55015;SDS011;40919;43.236;21.590;2022-07-29T11:22:59;7.80;;;6.32;;
55015;SDS011;40919;43.236;21.590;2022-07-29T11:25:26;11.68;;;10.13;;
55015;SDS011;40919;43.236;21.590;2022-07-29T11:27:52;8.88;;;6.88;;
55015;SDS011;40919;43.236;21.590;2022-07-29T11:30:20;8.88;;;6.55;;
55015;SDS011;40919;43.236;21.590;2022-07-29T11:32:46;7.53;;;6.40;;
55015;SDS011;40919;43.236;21.590;2022-07-29T11:37:42;9.18;;;6.65;;
55015;SDS011;40919;43.236;21.590;2022-07-29T11:40:12;10.02;;;7.03;;
55015;SDS011;40919;43.236;21.590;2022-07-29T11:42:39;12.30;;;7.82;;
55015;SDS011;40919;43.236;21.590;2022-07-29T11:45:13;13.35;;;8.82;;
55015;SDS011;40919;43.236;21.590;2022-07-29T11:50:17;6.65;;;5.95;;
55015;SDS011;40919;43.236;21.590;2022-07-29T11:52:44;10.77;;;6.43;;
55015;SDS011;40919;43.236;21.590;2022-07-29T11:55:18;12.23;;;7.20;;
55015;SDS011;40919;43.236;21.590;2022-07-29T11:57:55;7.53;;;6.72;;
55015;SDS011;40919;43.236;21.590;2022-07-29T12:00:23;11.68;;;7.45;;
55015;SDS011;40919;43.236;21.590;2022-07-29T12:02:49;11.15;;;6.38;;
55015;SDS011;40919;43.236;21.590;2022-07-29T12:05:16;10.13;;;6.25;;
55015;SDS011;40919;43.236;21.590;2022-07-29T12:07:42;10.18;;;8.02;;
55015;SDS011;40919;43.236;21.590;2022-07-29T12:10:08;7.82;;;6.28;;
55015;SDS011;40919;43.236;21.590;2022-07-29T12:12:35;7.72;;;6.75;;
55015;SDS011;40919;43.236;21.590;2022-07-29T12:15:14;9.38;;;6.70;;
55015;SDS011;40919;43.236;21.590;2022-07-29T12:17:42;8.40;;;6.30;;
55015;SDS011;40919;43.236;21.590;2022-07-29T12:20:08;11.63;;;6.40;;
55015;SDS011;40919;43.236;21.590;2022-07-29T12:22:36;8.68;;;6.50;;
55015;SDS011;40919;43.236;21.590;2022-07-29T12:25:12;7.37;;;6.27;;
55015;SDS011;40919;43.236;21.590;2022-07-29T12:27:40;10.50;;;6.13;;
55015;SDS011;40919;43.236;21.590;2022-07-29T12:30:12;7.85;;;5.95;;
55015;SDS011;40919;43.236;21.590;2022-07-29T12:32:42;10.43;;;6.97;;
55015;SDS011;40919;43.236;21.590;2022-07-29T12:35:09;10.98;;;9.40;;
55015;SDS011;40919;43.236;21.590;2022-07-29T12:37:38;10.68;;;6.90;;
55015;SDS011;40919;43.236;21.590;2022-07-29T12:40:05;6.95;;;6.25;;
55015;SDS011;40919;43.236;21.590;2022-07-29T12:42:32;9.80;;;6.35;;
55015;SDS011;40919;43.236;21.590;2022-07-29T12:44:58;6.85;;;6.15;;
55015;SDS011;40919;43.236;21.590;2022-07-29T12:47:25;10.10;;;6.28;;
55015;SDS011;40919;43.236;21.590;2022-07-29T12:49:53;11.70;;;8.60;;
55015;SDS011;40919;43.236;21.590;2022-07-29T12:54:59;8.95;;;6.70;;
55015;SDS011;40919;43.236;21.590;2022-07-29T12:57:26;7.45;;;6.60;;
55015;SDS011;40919;43.236;21.590;2022-07-29T13:00:03;8.27;;;6.47;;
55015;SDS011;40919;43.236;21.590;2022-07-29T13:02:30;8.57;;;6.18;;
55015;SDS011;40919;43.236;21.590;2022-07-29T13:04:56;9.77;;;6.25;;
55015;SDS011;40919;43.236;21.590;2022-07-29T13:07:23;9.45;;;6.43;;
55015;SDS011;40919;43.236;21.590;2022-07-29T13:09:50;7.45;;;5.90;;
55015;SDS011;40919;43.236;21.590;2022-07-29T13:12:16;9.07;;;6.47;;
55015;SDS011;40919;43.236;21.590;2022-07-29T13:14:43;18.45;;;6.13;;
55015;SDS011;40919;43.236;21.590;2022-07-29T13:17:14;9.90;;;6.70;;
55015;SDS011;40919;43.236;21.590;2022-07-29T13:20:05;6.85;;;6.13;;
55015;SDS011;40919;43.236;21.590;2022-07-29T13:22:34;11.35;;;5.70;;
55015;SDS011;40919;43.236;21.590;2022-07-29T13:25:01;6.78;;;6.07;;
55015;SDS011;40919;43.236;21.590;2022-07-29T13:27:28;7.25;;;6.18;;
55015;SDS011;40919;43.236;21.590;2022-07-29T13:29:58;6.55;;;5.85;;
55015;SDS011;40919;43.236;21.590;2022-07-29T13:32:26;8.30;;;6.50;;
55015;SDS011;40919;43.236;21.590;2022-07-29T13:34:53;7.53;;;6.35;;
55015;SDS011;40919;43.236;21.590;2022-07-29T13:37:24;6.80;;;6.10;;
55015;SDS011;40919;43.236;21.590;2022-07-29T13:39:50;7.68;;;6.20;;
55015;SDS011;40919;43.236;21.590;2022-07-29T13:42:22;7.43;;;6.00;;
55015;SDS011;40919;43.236;21.590;2022-07-29T13:44:49;7.70;;;6.18;;
55015;SDS011;40919;43.236;21.590;2022-07-29T13:47:17;8.98;;;6.93;;
55015;SDS011;40919;43.236;21.590;2022-07-29T13:49:44;8.57;;;6.93;;
55015;SDS011;40919;43.236;21.590;2022-07-29T13:52:10;8.38;;;5.97;;
55015;SDS011;40919;43.236;21.590;2022-07-29T13:54:36;8.52;;;6.25;;
55015;SDS011;40919;43.236;21.590;2022-07-29T13:57:05;6.32;;;5.22;;
55015;SDS011;40919;43.236;21.590;2022-07-29T13:59:32;9.60;;;6.00;;
55015;SDS011;40919;43.236;21.590;2022-07-29T14:01:58;8.70;;;6.20;;
55015;SDS011;40919;43.236;21.590;2022-07-29T14:04:24;6.57;;;5.88;;
55015;SDS011;40919;43.236;21.590;2022-07-29T14:06:50;7.53;;;5.72;;
55015;SDS011;40919;43.236;21.590;2022-07-29T14:09:17;7.50;;;5.80;;
55015;SDS011;40919;43.236;21.590;2022-07-29T14:11:45;6.13;;;5.53;;
55015;SDS011;40919;43.236;21.590;2022-07-29T14:14:14;6.55;;;5.78;;
55015;SDS011;40919;43.236;21.590;2022-07-29T14:16:40;9.00;;;5.68;;
55015;SDS011;40919;43.236;21.590;2022-07-29T14:19:06;6.50;;;5.82;;
55015;SDS011;40919;43.236;21.590;2022-07-29T14:21:32;7.45;;;5.88;;
55015;SDS011;40919;43.236;21.590;2022-07-29T14:23:59;6.80;;;5.78;;
55015;SDS011;40919;43.236;21.590;2022-07-29T14:26:25;7.63;;;6.78;;
55015;SDS011;40919;43.236;21.590;2022-07-29T14:28:51;9.23;;;5.85;;
55015;SDS011;40919;43.236;21.590;2022-07-29T14:31:17;7.10;;;6.20;;
55015;SDS011;40919;43.236;21.590;2022-07-29T14:33:44;6.40;;;5.80;;
55015;SDS011;40919;43.236;21.590;2022-07-29T14:36:10;8.63;;;6.35;;
55015;SDS011;40919;43.236;21.590;2022-07-29T14:38:36;7.63;;;5.68;;
55015;SDS011;40919;43.236;21.590;2022-07-29T14:41:03;8.98;;;6.00;;
55015;SDS011;40919;43.236;21.590;2022-07-29T14:43:29;8.73;;;5.95;;
55015;SDS011;40919;43.236;21.590;2022-07-29T14:45:55;7.38;;;6.40;;
55015;SDS011;40919;43.236;21.590;2022-07-29T14:48:21;8.52;;;6.07;;
55015;SDS011;40919;43.236;21.590;2022-07-29T14:50:47;10.98;;;6.57;;
55015;SDS011;40919;43.236;21.590;2022-07-29T14:53:13;11.98;;;6.35;;
55015;SDS011;40919;43.236;21.590;2022-07-29T14:55:39;7.93;;;5.95;;
55015;SDS011;40919;43.236;21.590;2022-07-29T14:58:05;10.18;;;7.72;;
55015;SDS011;40919;43.236;21.590;2022-07-29T15:00:31;5.93;;;5.32;;
55015;SDS011;40919;43.236;21.590;2022-07-29T15:03:01;8.75;;;7.15;;
55015;SDS011;40919;43.236;21.590;2022-07-29T15:05:27;11.65;;;9.45;;
55015;SDS011;40919;43.236;21.590;2022-07-29T15:07:53;12.52;;;9.65;;
55015;SDS011;40919;43.236;21.590;2022-07-29T15:10:19;11.25;;;9.80;;
55015;SDS011;40919;43.236;21.590;2022-07-29T15:12:45;13.48;;;11.27;;
55015;SDS011;40919;43.236;21.590;2022-07-29T15:15:11;11.13;;;8.48;;
55015;SDS011;40919;43.236;21.590;2022-07-29T15:17:37;8.45;;;7.63;;
55015;SDS011;40919;43.236;21.590;2022-07-29T15:20:03;12.27;;;11.05;;
55015;SDS011;40919;43.236;21.590;2022-07-29T15:22:29;12.57;;;10.82;;
55015;SDS011;40919;43.236;21.590;2022-07-29T15:24:55;9.60;;;8.70;;
55015;SDS011;40919;43.236;21.590;2022-07-29T15:27:21;10.82;;;8.43;;
55015;SDS011;40919;43.236;21.590;2022-07-29T15:29:47;11.15;;;9.63;;
55015;SDS011;40919;43.236;21.590;2022-07-29T15:32:12;10.35;;;9.05;;
55015;SDS011;40919;43.236;21.590;2022-07-29T15:34:39;11.75;;;8.13;;